sensor_id;sensor_type;location;lat;lon;timestamp;pressure;altitude;pressure_sealevel;temperature;humidity
65760;BME280;52496;51.082;5.066;2024-03-08T00:00:23;101540.25;;;4.02;100.00
65760;BME280;52496;51.082;5.066;2024-03-08T00:02:53;101548.06;;;4.03;100.00
65760;BME280;52496;51.082;5.066;2024-03-08T00:05:24;101544.69;;;4.01;100.00
65760;BME280;52496;51.082;5.066;2024-03-08T00:07:54;101542.19;;;4.00;100.00
65760;BME280;52496;51.082;5.066;2024-03-08T00:10:25;101539.66;;;3.98;100.00
65760;BME280;52496;51.082;5.066;2024-03-08T00:12:55;101537.97;;;3.97;100.00
65760;BME280;52496;51.082;5.066;2024-03-08T00:15:26;101534.50;;;3.97;100.00
65760;BME280;52496;51.082;5.066;2024-03-08T00:17:56;101530.28;;;3.94;100.00
65760;BME280;52496;51.082;5.066;2024-03-08T00:20:27;101527.63;;;3.94;100.00
65760;BME280;52496;51.082;5.066;2024-03-08T00:22:58;101527.63;;;3.94;100.00
65760;BME280;52496;51.082;5.066;2024-03-08T00:25:28;101525.25;;;3.91;100.00
65760;BME280;52496;51.082;5.066;2024-03-08T00:27:59;101512.25;;;3.88;100.00
65760;BME280;52496;51.082;5.066;2024-03-08T00:30:30;101521.19;;;3.87;100.00
65760;BME280;52496;51.082;5.066;2024-03-08T00:33:01;101515.88;;;3.87;100.00
65760;BME280;52496;51.082;5.066;2024-03-08T00:35:32;101521.19;;;3.87;100.00
65760;BME280;52496;51.082;5.066;2024-03-08T00:38:02;101518.63;;;3.85;100.00
65760;BME280;52496;51.082;5.066;2024-03-08T00:40:33;101510.84;;;3.84;100.00
65760;BME280;52496;51.082;5.066;2024-03-08T00:43:03;101511.78;;;3.83;100.00
65760;BME280;52496;51.082;5.066;2024-03-08T00:45:34;101512.75;;;3.82;100.00
65760;BME280;52496;51.082;5.066;2024-03-08T00:48:05;101509.28;;;3.81;100.00
65760;BME280;52496;51.082;5.066;2024-03-08T00:50:36;101506.88;;;3.78;100.00
65760;BME280;52496;51.082;5.066;2024-03-08T00:53:07;101505.31;;;3.76;100.00
65760;BME280;52496;51.082;5.066;2024-03-08T00:55:37;101509.03;;;3.73;100.00
65760;BME280;52496;51.082;5.066;2024-03-08T00:58:08;101509.03;;;3.73;100.00
65760;BME280;52496;51.082;5.066;2024-03-08T01:00:39;101503.75;;;3.73;100.00
65760;BME280;52496;51.082;5.066;2024-03-08T01:03:10;101502.09;;;3.72;100.00
65760;BME280;52496;51.082;5.066;2024-03-08T01:05:40;101492.59;;;3.70;100.00
65760;BME280;52496;51.082;5.066;2024-03-08T01:08:11;101491.84;;;3.67;100.00
65760;BME280;52496;51.082;5.066;2024-03-08T01:10:42;101500.88;;;3.65;100.00
65760;BME280;52496;51.082;5.066;2024-03-08T01:13:12;101494.06;;;3.62;100.00
65760;BME280;52496;51.082;5.066;2024-03-08T01:15:43;101491.41;;;3.62;100.00
65760;BME280;52496;51.082;5.066;2024-03-08T01:18:13;101491.41;;;3.62;100.00
65760;BME280;52496;51.082;5.066;2024-03-08T01:20:43;101490.69;;;3.60;100.00
65760;BME280;52496;51.082;5.066;2024-03-08T01:23:14;101480.34;;;3.57;100.00
65760;BME280;52496;51.082;5.066;2024-03-08T01:25:44;101484.91;;;3.55;100.00
65760;BME280;52496;51.082;5.066;2024-03-08T01:28:15;101477.22;;;3.52;100.00
65760;BME280;52496;51.082;5.066;2024-03-08T01:30:45;101470.25;;;3.51;100.00
65760;BME280;52496;51.082;5.066;2024-03-08T01:33:16;101468.69;;;3.49;100.00
65760;BME280;52496;51.082;5.066;2024-03-08T01:35:46;101467.13;;;3.46;100.00
65760;BME280;52496;51.082;5.066;2024-03-08T01:38:17;101463.06;;;3.42;100.00
65760;BME280;52496;51.082;5.066;2024-03-08T01:40:48;101456.22;;;3.39;100.00
65760;BME280;52496;51.082;5.066;2024-03-08T01:43:22;101456.34;;;3.38;100.00
65760;BME280;52496;51.082;5.066;2024-03-08T01:45:53;101460.19;;;3.34;100.00
65760;BME280;52496;51.082;5.066;2024-03-08T01:48:23;101459.59;;;3.30;100.00
65760;BME280;52496;51.082;5.066;2024-03-08T01:50:54;101459.72;;;3.29;100.00
65760;BME280;52496;51.082;5.066;2024-03-08T01:53:26;101451.06;;;3.27;100.00
65760;BME280;52496;51.082;5.066;2024-03-08T01:55:57;101448.19;;;3.30;100.00
65760;BME280;52496;51.082;5.066;2024-03-08T01:58:29;101432.31;;;3.30;100.00
65760;BME280;52496;51.082;5.066;2024-03-08T02:01:00;101437.59;;;3.30;100.00
65760;BME280;52496;51.082;5.066;2024-03-08T02:03:34;101441.22;;;3.29;100.00
65760;BME280;52496;51.082;5.066;2024-03-08T02:06:05;101433.50;;;3.26;100.00
65760;BME280;52496;51.082;5.066;2024-03-08T02:08:38;101423.31;;;3.21;100.00
65760;BME280;52496;51.082;5.066;2024-03-08T02:11:09;101424.41;;;3.18;100.00
65760;BME280;52496;51.082;5.066;2024-03-08T02:13:40;101422.00;;;3.15;100.00
65760;BME280;52496;51.082;5.066;2024-03-08T02:16:10;101421.28;;;3.13;100.00
65760;BME280;52496;51.082;5.066;2024-03-08T02:18:41;101412.88;;;3.08;100.00
65760;BME280;52496;51.082;5.066;2024-03-08T02:21:12;101415.63;;;3.07;100.00
65760;BME280;52496;51.082;5.066;2024-03-08T02:23:44;101408.78;;;3.04;100.00
65760;BME280;52496;51.082;5.066;2024-03-08T02:26:14;101408.09;;;3.02;100.00
65760;BME280;52496;51.082;5.066;2024-03-08T02:28:45;101401.09;;;3.01;100.00
65760;BME280;52496;51.082;5.066;2024-03-08T02:31:16;101402.91;;;3.01;100.00
65760;BME280;52496;51.082;5.066;2024-03-08T02:33:46;101404.72;;;3.00;100.00
65760;BME280;52496;51.082;5.066;2024-03-08T02:36:17;101395.22;;;2.97;100.00
65760;BME280;52496;51.082;5.066;2024-03-08T02:38:48;101397.16;;;2.95;100.00
65760;BME280;52496;51.082;5.066;2024-03-08T02:41:18;101387.69;;;2.93;100.00
65760;BME280;52496;51.082;5.066;2024-03-08T02:43:49;101382.50;;;2.91;100.00
65760;BME280;52496;51.082;5.066;2024-03-08T02:46:20;101382.63;;;2.90;100.00
65760;BME280;52496;51.082;5.066;2024-03-08T02:48:51;101375.91;;;2.86;100.00
65760;BME280;52496;51.082;5.066;2024-03-08T02:51:21;101374.97;;;2.87;100.00
65760;BME280;52496;51.082;5.066;2024-03-08T02:53:52;101368.94;;;2.85;100.00
65760;BME280;52496;51.082;5.066;2024-03-08T02:56:23;101370.84;;;2.83;100.00
65760;BME280;52496;51.082;5.066;2024-03-08T02:58:53;101364.88;;;2.81;100.00
65760;BME280;52496;51.082;5.066;2024-03-08T03:01:24;101362.25;;;2.81;100.00
65760;BME280;52496;51.082;5.066;2024-03-08T03:03:55;101369.19;;;2.82;100.00
65760;BME280;52496;51.082;5.066;2024-03-08T03:06:25;101362.09;;;2.82;100.00
65760;BME280;52496;51.082;5.066;2024-03-08T03:08:56;101357.78;;;2.81;100.00
65760;BME280;52496;51.082;5.066;2024-03-08T03:11:27;101368.47;;;2.80;100.00
65760;BME280;52496;51.082;5.066;2024-03-08T03:13:58;101362.59;;;2.76;100.00
65760;BME280;52496;51.082;5.066;2024-03-08T03:16:28;101365.38;;;2.74;100.00
65760;BME280;52496;51.082;5.066;2024-03-08T03:18:59;101357.69;;;2.71;100.00
65760;BME280;52496;51.082;5.066;2024-03-08T03:21:32;101358.75;;;2.69;100.00
65760;BME280;52496;51.082;5.066;2024-03-08T03:24:02;101354.56;;;2.66;100.00
65760;BME280;52496;51.082;5.066;2024-03-08T03:26:34;101366.31;;;2.62;100.00
65760;BME280;52496;51.082;5.066;2024-03-08T03:29:05;101347.94;;;2.61;100.00
65760;BME280;52496;51.082;5.066;2024-03-08T03:31:36;101346.13;;;2.61;100.00
65760;BME280;52496;51.082;5.066;2024-03-08T03:34:07;101349.84;;;2.59;100.00
65760;BME280;52496;51.082;5.066;2024-03-08T03:36:38;101340.41;;;2.56;100.00
65760;BME280;52496;51.082;5.066;2024-03-08T03:39:12;101334.38;;;2.54;100.00
65760;BME280;52496;51.082;5.066;2024-03-08T03:41:46;101342.41;;;2.52;100.00
65760;BME280;52496;51.082;5.066;2024-03-08T03:44:16;101347.09;;;2.49;100.00
65760;BME280;52496;51.082;5.066;2024-03-08T03:46:47;101340.88;;;2.50;100.00
65760;BME280;52496;51.082;5.066;2024-03-08T03:49:17;101327.91;;;2.47;100.00
65760;BME280;52496;51.082;5.066;2024-03-08T03:51:48;101326.22;;;2.46;100.00
65760;BME280;52496;51.082;5.066;2024-03-08T03:54:18;101328.16;;;2.44;100.00
65760;BME280;52496;51.082;5.066;2024-03-08T03:56:49;101328.41;;;2.41;100.00
65760;BME280;52496;51.082;5.066;2024-03-08T03:59:23;101331.16;;;2.39;100.00
65760;BME280;52496;51.082;5.066;2024-03-08T04:01:54;101326.09;;;2.36;100.00
65760;BME280;52496;51.082;5.066;2024-03-08T04:04:25;101320.97;;;2.35;100.00
65760;BME280;52496;51.082;5.066;2024-03-08T04:06:56;101318.41;;;2.33;100.00
65760;BME280;52496;51.082;5.066;2024-03-08T04:09:26;101309.66;;;2.33;100.00
65760;BME280;52496;51.082;5.066;2024-03-08T04:11:57;101316.84;;;2.30;100.00
65760;BME280;52496;51.082;5.066;2024-03-08T04:14:27;101300.31;;;2.28;100.00
65760;BME280;52496;51.082;5.066;2024-03-08T04:16:58;101297.91;;;2.25;100.00
65760;BME280;52496;51.082;5.066;2024-03-08T04:19:28;101294.56;;;2.23;100.00
65760;BME280;52496;51.082;5.066;2024-03-08T04:21:59;101289.28;;;2.23;100.00
65760;BME280;52496;51.082;5.066;2024-03-08T04:24:31;101284.00;;;2.23;100.00
65760;BME280;52496;51.082;5.066;2024-03-08T04:27:01;101289.28;;;2.23;100.00
65760;BME280;52496;51.082;5.066;2024-03-08T04:29:32;101286.75;;;2.22;100.00
65760;BME280;52496;51.082;5.066;2024-03-08T04:32:04;101286.75;;;2.22;100.00
65760;BME280;52496;51.082;5.066;2024-03-08T04:34:35;101286.97;;;2.19;100.00
65760;BME280;52496;51.082;5.066;2024-03-08T04:37:06;101294.06;;;2.18;100.00
65760;BME280;52496;51.082;5.066;2024-03-08T04:39:36;101280.25;;;2.15;100.00
65760;BME280;52496;51.082;5.066;2024-03-08T04:42:07;101284.72;;;2.14;100.00
65760;BME280;52496;51.082;5.066;2024-03-08T04:44:40;101286.63;;;2.12;100.00
65760;BME280;52496;51.082;5.066;2024-03-08T04:47:10;101284.94;;;2.11;100.00
65760;BME280;52496;51.082;5.066;2024-03-08T04:49:41;101285.19;;;2.08;100.00
65760;BME280;52496;51.082;5.066;2024-03-08T04:52:11;101279.06;;;2.08;100.00
65760;BME280;52496;51.082;5.066;2024-03-08T04:54:43;101280.16;;;2.05;100.00
65760;BME280;52496;51.082;5.066;2024-03-08T04:57:14;101263.59;;;2.03;100.00
65760;BME280;52496;51.082;5.066;2024-03-08T04:59:45;101264.78;;;1.99;100.00
65760;BME280;52496;51.082;5.066;2024-03-08T05:02:16;101270.06;;;1.99;100.00
65760;BME280;52496;51.082;5.066;2024-03-08T05:04:47;101269.09;;;2.00;100.00
65760;BME280;52496;51.082;5.066;2024-03-08T05:07:18;101264.78;;;1.99;100.00
65760;BME280;52496;51.082;5.066;2024-03-08T05:09:49;101267.44;;;1.99;100.00
65760;BME280;52496;51.082;5.066;2024-03-08T05:12:21;101263.13;;;1.98;100.00
65760;BME280;52496;51.082;5.066;2024-03-08T05:14:52;101265.88;;;1.96;100.00
65760;BME280;52496;51.082;5.066;2024-03-08T05:17:24;101263.13;;;1.98;100.00
65760;BME280;52496;51.082;5.066;2024-03-08T05:19:54;101252.78;;;1.95;100.00
65760;BME280;52496;51.082;5.066;2024-03-08T05:22:25;101253.00;;;1.92;100.00
65760;BME280;52496;51.082;5.066;2024-03-08T05:24:56;101247.88;;;1.90;100.00
65760;BME280;52496;51.082;5.066;2024-03-08T05:27:26;101239.97;;;1.90;100.00
65760;BME280;52496;51.082;5.066;2024-03-08T05:29:58;101231.06;;;1.91;100.00
65760;BME280;52496;51.082;5.066;2024-03-08T05:32:29;101230.38;;;1.89;100.00
65760;BME280;52496;51.082;5.066;2024-03-08T05:34:59;101240.19;;;1.87;100.00
65760;BME280;52496;51.082;5.066;2024-03-08T05:37:29;101227.25;;;1.84;100.00
65760;BME280;52496;51.082;5.066;2024-03-08T05:40:01;101232.63;;;1.82;100.00
65760;BME280;52496;51.082;5.066;2024-03-08T05:42:33;101222.06;;;1.82;100.00
65760;BME280;52496;51.082;5.066;2024-03-08T05:45:04;101222.06;;;1.82;100.00
65760;BME280;52496;51.082;5.066;2024-03-08T05:47:36;101217.66;;;1.83;100.00
65760;BME280;52496;51.082;5.066;2024-03-08T05:50:07;101216.81;;;1.82;100.00
65760;BME280;52496;51.082;5.066;2024-03-08T05:52:40;101218.75;;;1.80;100.00
65760;BME280;52496;51.082;5.066;2024-03-08T05:55:11;101208.19;;;1.80;100.00
65760;BME280;52496;51.082;5.066;2024-03-08T05:57:44;101210.81;;;1.80;100.00
65760;BME280;52496;51.082;5.066;2024-03-08T06:00:15;101204.81;;;1.78;100.00
65760;BME280;52496;51.082;5.066;2024-03-08T06:02:45;101206.72;;;1.76;100.00
65760;BME280;52496;51.082;5.066;2024-03-08T06:05:16;101208.53;;;1.76;100.00
65760;BME280;52496;51.082;5.066;2024-03-08T06:07:47;101210.47;;;1.74;100.00
65760;BME280;52496;51.082;5.066;2024-03-08T06:10:17;101204.00;;;1.78;100.00
65760;BME280;52496;51.082;5.066;2024-03-08T06:12:48;101208.44;;;1.77;100.00
65760;BME280;52496;51.082;5.066;2024-03-08T06:15:19;101204.81;;;1.78;100.00
65760;BME280;52496;51.082;5.066;2024-03-08T06:17:51;101205.66;;;1.79;100.00
65760;BME280;52496;51.082;5.066;2024-03-08T06:20:23;101192.38;;;1.80;100.00
65760;BME280;52496;51.082;5.066;2024-03-08T06:22:56;101203.38;;;1.86;100.00
65760;BME280;52496;51.082;5.066;2024-03-08T06:25:26;101197.41;;;1.83;100.00
65760;BME280;52496;51.082;5.066;2024-03-08T06:27:57;101207.72;;;1.87;100.00
65760;BME280;52496;51.082;5.066;2024-03-08T06:30:28;101205.78;;;1.89;100.00
65760;BME280;52496;51.082;5.066;2024-03-08T06:33:00;101202.19;;;1.90;100.00
65760;BME280;52496;51.082;5.066;2024-03-08T06:35:31;101196.09;;;1.89;100.00
65760;BME280;52496;51.082;5.066;2024-03-08T06:38:08;101196.78;;;1.91;100.00
65760;BME280;52496;51.082;5.066;2024-03-08T06:40:38;101197.28;;;1.96;100.00
65760;BME280;52496;51.082;5.066;2024-03-08T06:43:10;101191.91;;;1.98;100.00
65760;BME280;52496;51.082;5.066;2024-03-08T06:45:45;101189.97;;;2.00;100.00
65760;BME280;52496;51.082;5.066;2024-03-08T06:48:22;101191.41;;;2.04;100.00
65760;BME280;52496;51.082;5.066;2024-03-08T06:50:53;101188.53;;;2.07;100.00
65760;BME280;52496;51.082;5.066;2024-03-08T06:53:24;101188.31;;;2.10;100.00
65760;BME280;52496;51.082;5.066;2024-03-08T06:55:55;101186.25;;;2.14;100.00
65760;BME280;52496;51.082;5.066;2024-03-08T06:58:26;101189.47;;;2.17;100.00
65760;BME280;52496;51.082;5.066;2024-03-08T07:00:57;101187.44;;;2.21;100.00
65760;BME280;52496;51.082;5.066;2024-03-08T07:03:30;101183.47;;;2.26;100.00
65760;BME280;52496;51.082;5.066;2024-03-08T07:06:02;101181.31;;;2.32;100.00
65760;BME280;52496;51.082;5.066;2024-03-08T07:08:33;101174.56;;;2.39;100.00
65760;BME280;52496;51.082;5.066;2024-03-08T07:11:03;101169.63;;;2.45;100.00
65760;BME280;52496;51.082;5.066;2024-03-08T07:13:34;101172.63;;;2.52;100.00
65760;BME280;52496;51.082;5.066;2024-03-08T07:16:04;101170.19;;;2.60;100.00
65760;BME280;52496;51.082;5.066;2024-03-08T07:18:36;101170.53;;;2.67;100.00
65760;BME280;52496;51.082;5.066;2024-03-08T07:21:10;101162.94;;;2.73;100.00
65760;BME280;52496;51.082;5.066;2024-03-08T07:23:40;101157.88;;;2.82;100.00
65760;BME280;52496;51.082;5.066;2024-03-08T07:26:23;101156.28;;;2.90;100.00
65760;BME280;52496;51.082;5.066;2024-03-08T07:28:54;101159.97;;;2.99;100.00
65760;BME280;52496;51.082;5.066;2024-03-08T07:31:29;101159.22;;;3.08;100.00
65760;BME280;52496;51.082;5.066;2024-03-08T07:34:15;101151.44;;;3.16;100.00
65760;BME280;52496;51.082;5.066;2024-03-08T07:36:46;101153.31;;;3.26;100.00
65760;BME280;52496;51.082;5.066;2024-03-08T07:39:17;101150.06;;;3.33;100.00
65760;BME280;52496;51.082;5.066;2024-03-08T07:41:47;101147.47;;;3.43;100.00
65760;BME280;52496;51.082;5.066;2024-03-08T07:44:18;101145.00;;;3.51;100.00
65760;BME280;52496;51.082;5.066;2024-03-08T07:46:49;101134.63;;;3.59;100.00
65760;BME280;52496;51.082;5.066;2024-03-08T07:49:19;101136.47;;;3.68;100.00
65760;BME280;52496;51.082;5.066;2024-03-08T07:51:50;101134.69;;;3.79;100.00
65760;BME280;52496;51.082;5.066;2024-03-08T07:54:22;101125.97;;;3.88;100.00
65760;BME280;52496;51.082;5.066;2024-03-08T07:56:52;101118.19;;;3.96;100.00
65760;BME280;52496;51.082;5.066;2024-03-08T07:59:23;101112.91;;;4.06;100.00
65760;BME280;52496;51.082;5.066;2024-03-08T08:01:53;101118.13;;;4.17;100.00
65760;BME280;52496;51.082;5.066;2024-03-08T08:04:24;101115.22;;;4.30;100.00
65760;BME280;52496;51.082;5.066;2024-03-08T08:06:55;101105.34;;;4.42;100.00
65760;BME280;52496;51.082;5.066;2024-03-08T08:09:26;101114.94;;;4.52;100.00
65760;BME280;52496;51.082;5.066;2024-03-08T08:12:04;101108.53;;;4.65;100.00
65760;BME280;52496;51.082;5.066;2024-03-08T08:14:35;101115.66;;;4.74;100.00
65760;BME280;52496;51.082;5.066;2024-03-08T08:17:05;101117.47;;;4.83;100.00
65760;BME280;52496;51.082;5.066;2024-03-08T08:19:40;101116.31;;;4.95;100.00
65760;BME280;52496;51.082;5.066;2024-03-08T08:22:11;101108.34;;;5.05;100.00
65760;BME280;52496;51.082;5.066;2024-03-08T08:24:42;101105.44;;;5.18;100.00
65760;BME280;52496;51.082;5.066;2024-03-08T08:27:12;101106.78;;;5.32;100.00
65760;BME280;52496;51.082;5.066;2024-03-08T08:29:44;101085.53;;;5.41;100.00
65760;BME280;52496;51.082;5.066;2024-03-08T08:32:16;101088.00;;;5.52;100.00
65760;BME280;52496;51.082;5.066;2024-03-08T08:34:46;101083.50;;;5.63;100.00
65760;BME280;52496;51.082;5.066;2024-03-08T08:37:17;101076.47;;;5.71;100.00
65760;BME280;52496;51.082;5.066;2024-03-08T08:39:48;101076.69;;;5.88;100.00
65760;BME280;52496;51.082;5.066;2024-03-08T08:42:19;101070.75;;;6.04;100.00
65760;BME280;52496;51.082;5.066;2024-03-08T08:44:51;101065.31;;;6.23;100.00
65760;BME280;52496;51.082;5.066;2024-03-08T08:47:22;101062.84;;;6.39;100.00
65760;BME280;52496;51.082;5.066;2024-03-08T08:49:53;101063.41;;;6.51;100.00
65760;BME280;52496;51.082;5.066;2024-03-08T08:52:24;101064.56;;;6.66;100.00
65760;BME280;52496;51.082;5.066;2024-03-08T08:54:55;101054.66;;;6.77;100.00
65760;BME280;52496;51.082;5.066;2024-03-08T08:57:25;101053.22;;;6.82;100.00
65760;BME280;52496;51.082;5.066;2024-03-08T08:59:57;101050.97;;;6.96;100.00
65760;BME280;52496;51.082;5.066;2024-03-08T09:02:28;101058.72;;;7.07;97.12
65760;BME280;52496;51.082;5.066;2024-03-08T09:04:58;101048.41;;;7.12;97.13
65760;BME280;52496;51.082;5.066;2024-03-08T09:07:29;101037.22;;;7.26;97.80
65760;BME280;52496;51.082;5.066;2024-03-08T09:10:02;101025.31;;;7.39;95.78
65760;BME280;52496;51.082;5.066;2024-03-08T09:12:32;101027.50;;;7.51;95.94
65760;BME280;52496;51.082;5.066;2024-03-08T09:15:03;101027.09;;;7.72;95.56
65760;BME280;52496;51.082;5.066;2024-03-08T09:17:34;101019.47;;;7.77;89.57
65760;BME280;52496;51.082;5.066;2024-03-08T09:20:07;101010.81;;;7.75;89.12
65760;BME280;52496;51.082;5.066;2024-03-08T09:22:39;101024.16;;;7.84;90.08
65760;BME280;52496;51.082;5.066;2024-03-08T09:25:10;101009.72;;;7.94;91.15
65760;BME280;52496;51.082;5.066;2024-03-08T09:27:41;101002.53;;;8.03;86.63
65760;BME280;52496;51.082;5.066;2024-03-08T09:30:11;100999.75;;;8.21;91.29
65760;BME280;52496;51.082;5.066;2024-03-08T09:32:43;101011.78;;;8.41;87.54
65760;BME280;52496;51.082;5.066;2024-03-08T09:35:14;100991.66;;;8.55;86.82
65760;BME280;52496;51.082;5.066;2024-03-08T09:37:45;100978.78;;;8.67;86.97
65760;BME280;52496;51.082;5.066;2024-03-08T09:40:18;100978.28;;;8.80;84.28
65760;BME280;52496;51.082;5.066;2024-03-08T09:42:50;100978.75;;;8.91;84.07
65760;BME280;52496;51.082;5.066;2024-03-08T09:45:21;100970.22;;;9.04;84.87
65760;BME280;52496;51.082;5.066;2024-03-08T09:47:55;100968.19;;;9.14;83.92
65760;BME280;52496;51.082;5.066;2024-03-08T09:50:25;100962.16;;;9.29;82.01
65760;BME280;52496;51.082;5.066;2024-03-08T09:52:58;100964.41;;;9.40;81.21
65760;BME280;52496;51.082;5.066;2024-03-08T09:55:29;100957.38;;;9.47;81.86
65760;BME280;52496;51.082;5.066;2024-03-08T09:58:06;100947.78;;;9.61;79.76
65760;BME280;52496;51.082;5.066;2024-03-08T10:00:55;100944.13;;;9.62;77.96
65760;BME280;52496;51.082;5.066;2024-03-08T10:03:28;100936.94;;;9.62;76.84
65760;BME280;52496;51.082;5.066;2024-03-08T10:05:59;100940.88;;;9.75;78.39
65760;BME280;52496;51.082;5.066;2024-03-08T10:08:30;100931.13;;;9.82;73.91
65760;BME280;52496;51.082;5.066;2024-03-08T10:11:01;100924.25;;;9.87;74.87
65760;BME280;52496;51.082;5.066;2024-03-08T10:13:31;100931.75;;;9.92;75.49
65760;BME280;52496;51.082;5.066;2024-03-08T10:16:02;100934.00;;;10.03;73.45
65760;BME280;52496;51.082;5.066;2024-03-08T10:18:35;100938.25;;;10.13;72.06
65760;BME280;52496;51.082;5.066;2024-03-08T10:21:07;100929.88;;;10.16;72.22
65760;BME280;52496;51.082;5.066;2024-03-08T10:23:40;100926.13;;;10.25;71.17
65760;BME280;52496;51.082;5.066;2024-03-08T10:26:15;100921.69;;;10.40;74.30
65760;BME280;52496;51.082;5.066;2024-03-08T10:28:50;100911.22;;;10.53;73.21
65760;BME280;52496;51.082;5.066;2024-03-08T10:31:21;100910.22;;;10.69;73.68
65760;BME280;52496;51.082;5.066;2024-03-08T10:33:51;100904.97;;;10.76;69.22
65760;BME280;52496;51.082;5.066;2024-03-08T10:36:22;100908.91;;;10.80;67.27
65760;BME280;52496;51.082;5.066;2024-03-08T10:38:52;100884.66;;;10.82;69.70
65760;BME280;52496;51.082;5.066;2024-03-08T10:41:24;100899.44;;;10.77;67.82
65760;BME280;52496;51.082;5.066;2024-03-08T10:44:26;100890.69;;;10.69;67.18
65760;BME280;52496;51.082;5.066;2024-03-08T10:47:26;100892.31;;;10.85;71.12
65760;BME280;52496;51.082;5.066;2024-03-08T10:50:11;100891.22;;;11.09;70.91
65760;BME280;52496;51.082;5.066;2024-03-08T10:52:45;100889.84;;;11.34;69.29
65760;BME280;52496;51.082;5.066;2024-03-08T10:55:15;100893.63;;;11.40;67.67
65760;BME280;52496;51.082;5.066;2024-03-08T10:57:47;100885.06;;;11.44;65.15
65760;BME280;52496;51.082;5.066;2024-03-08T11:00:18;100876.06;;;11.52;67.98
65760;BME280;52496;51.082;5.066;2024-03-08T11:02:56;100879.00;;;11.57;63.86
65760;BME280;52496;51.082;5.066;2024-03-08T11:08:18;100862.13;;;11.57;63.65
65760;BME280;52496;51.082;5.066;2024-03-08T11:10:53;100863.88;;;11.49;63.63
65760;BME280;52496;51.082;5.066;2024-03-08T11:16:09;100859.91;;;11.45;66.91
65760;BME280;52496;51.082;5.066;2024-03-08T11:18:40;100852.97;;;11.51;65.33
65760;BME280;52496;51.082;5.066;2024-03-08T11:21:11;100846.53;;;11.67;65.89
65760;BME280;52496;51.082;5.066;2024-03-08T11:23:42;100844.38;;;11.99;69.81
65760;BME280;52496;51.082;5.066;2024-03-08T11:26:24;100836.28;;;12.20;63.65
65760;BME280;52496;51.082;5.066;2024-03-08T11:28:54;100840.09;;;12.32;63.56
65760;BME280;52496;51.082;5.066;2024-03-08T11:31:26;100837.31;;;12.47;65.01
65760;BME280;52496;51.082;5.066;2024-03-08T11:33:57;100843.16;;;12.57;60.43
65760;BME280;52496;51.082;5.066;2024-03-08T11:36:28;100839.72;;;12.70;63.50
65760;BME280;52496;51.082;5.066;2024-03-08T11:39:00;100836.47;;;12.81;64.69
65760;BME280;52496;51.082;5.066;2024-03-08T11:41:40;100830.16;;;13.02;64.28
65760;BME280;52496;51.082;5.066;2024-03-08T11:44:11;100817.44;;;13.24;62.66
65760;BME280;52496;51.082;5.066;2024-03-08T11:46:46;100812.13;;;13.38;62.69
65760;BME280;52496;51.082;5.066;2024-03-08T11:49:17;100821.63;;;13.47;58.84
65760;BME280;52496;51.082;5.066;2024-03-08T11:51:51;100817.06;;;13.41;60.61
65760;BME280;52496;51.082;5.066;2024-03-08T11:54:22;100820.41;;;13.43;60.42
65760;BME280;52496;51.082;5.066;2024-03-08T11:56:53;100811.72;;;13.47;58.64
65760;BME280;52496;51.082;5.066;2024-03-08T11:59:25;100818.34;;;13.58;57.84
65760;BME280;52496;51.082;5.066;2024-03-08T12:02:03;100806.56;;;13.46;57.09
65760;BME280;52496;51.082;5.066;2024-03-08T12:04:34;100798.50;;;13.52;59.97
65760;BME280;52496;51.082;5.066;2024-03-08T12:07:09;100788.56;;;13.66;59.39
65760;BME280;52496;51.082;5.066;2024-03-08T12:09:42;100790.88;;;13.83;56.91
65760;BME280;52496;51.082;5.066;2024-03-08T12:12:16;100783.44;;;13.85;59.02
65760;BME280;52496;51.082;5.066;2024-03-08T12:14:47;100774.53;;;14.04;59.47
65760;BME280;52496;51.082;5.066;2024-03-08T12:17:17;100772.84;;;14.16;59.00
65760;BME280;52496;51.082;5.066;2024-03-08T12:19:48;100770.75;;;14.32;59.05
65760;BME280;52496;51.082;5.066;2024-03-08T12:22:19;100766.81;;;14.34;58.22
65760;BME280;52496;51.082;5.066;2024-03-08T12:25:03;100764.72;;;14.43;56.89
65760;BME280;52496;51.082;5.066;2024-03-08T12:27:35;100757.88;;;14.47;57.95
65760;BME280;52496;51.082;5.066;2024-03-08T12:30:24;100765.69;;;14.68;56.45
65760;BME280;52496;51.082;5.066;2024-03-08T12:33:00;100751.56;;;14.80;57.21
65760;BME280;52496;51.082;5.066;2024-03-08T12:35:30;100749.91;;;14.85;53.07
65760;BME280;52496;51.082;5.066;2024-03-08T12:38:06;100737.41;;;14.98;56.89
65760;BME280;52496;51.082;5.066;2024-03-08T12:40:40;100731.16;;;14.97;53.47
65760;BME280;52496;51.082;5.066;2024-03-08T12:43:12;100726.19;;;15.01;56.03
65760;BME280;52496;51.082;5.066;2024-03-08T12:45:46;100717.81;;;15.16;54.81
65760;BME280;52496;51.082;5.066;2024-03-08T12:48:17;100720.72;;;15.14;52.93
65760;BME280;52496;51.082;5.066;2024-03-08T12:50:47;100721.59;;;15.08;52.71
65760;BME280;52496;51.082;5.066;2024-03-08T12:53:18;100716.81;;;15.10;55.06
65760;BME280;52496;51.082;5.066;2024-03-08T12:55:48;100707.72;;;15.04;53.89
65760;BME280;52496;51.082;5.066;2024-03-08T12:58:19;100694.97;;;15.18;56.39
65760;BME280;52496;51.082;5.066;2024-03-08T13:00:50;100695.47;;;15.40;56.13
65760;BME280;52496;51.082;5.066;2024-03-08T13:03:21;100684.28;;;15.62;54.58
65760;BME280;52496;51.082;5.066;2024-03-08T13:05:53;100689.81;;;15.67;52.72
65760;BME280;52496;51.082;5.066;2024-03-08T13:08:23;100686.38;;;15.59;53.43
65760;BME280;52496;51.082;5.066;2024-03-08T13:10:56;100670.88;;;15.80;53.67
65760;BME280;52496;51.082;5.066;2024-03-08T13:13:27;100677.25;;;16.04;53.86
65760;BME280;52496;51.082;5.066;2024-03-08T13:15:57;100682.56;;;16.11;50.75
65760;BME280;52496;51.082;5.066;2024-03-08T13:18:30;100672.16;;;16.14;51.20